Time;durP1;ratioP1;P1;durP2;ratioP2;P2;SDS_P1;SDS_P2;PMS_P1;PMS_P2;Temp;Humidity;BMP_temperature;BMP_pressure;BME280_temperature;BME280_humidity;BME280_pressure;Samples;Min_cycle;Max_cycle;Signal;HPM_P1;HPM_P2
2021/01/15 00:01:49;;;;;;;6.82;3.40;;;;;;;;;;5035865;28;20033;-80
2021/01/15 00:04:15;;;;;;;6.70;3.22;;;;;;;;;;5050097;28;20051;-81
2021/01/15 00:06:41;;;;;;;8.18;3.20;;;;;;;;;;5049420;28;20138;-80
2021/01/15 00:09:07;;;;;;;9.77;2.83;;;;;;;;;;5049971;28;20091;-80
2021/01/15 00:11:34;;;;;;;7.80;3.22;;;;;;;;;;5051511;28;20051;-80
2021/01/15 00:14:00;;;;;;;8.32;2.88;;;;;;;;;;5051952;28;20028;-81
2021/01/15 00:16:27;;;;;;;7.18;3.08;;;;;;;;;;5051696;28;20036;-81
2021/01/15 00:18:54;;;;;;;7.25;3.40;;;;;;;;;;5050095;28;20034;-81
2021/01/15 00:21:22;;;;;;;7.93;3.33;;;;;;;;;;5049765;28;20116;-81
2021/01/15 00:23:48;;;;;;;9.20;3.17;;;;;;;;;;5049428;28;20021;-82
2021/01/15 00:26:15;;;;;;;7.18;3.30;;;;;;;;;;5051143;28;20032;-82
2021/01/15 00:28:41;;;;;;;10.40;3.60;;;;;;;;;;5051319;28;20033;-79
2021/01/15 00:31:07;;;;;;;7.25;3.35;;;;;;;;;;5050222;28;20009;-80
2021/01/15 00:33:33;;;;;;;7.25;3.15;;;;;;;;;;5050241;28;20021;-81
2021/01/15 00:35:59;;;;;;;6.32;3.13;;;;;;;;;;5051549;28;20029;-82
2021/01/15 00:38:25;;;;;;;8.73;3.63;;;;;;;;;;5050200;28;20055;-82
2021/01/15 00:41:18;;;;;;;7.60;3.67;;;;;;;;;;5048268;28;20446;-80
2021/01/15 00:43:44;;;;;;;6.20;3.60;;;;;;;;;;5028203;28;20032;-80
2021/01/15 00:46:24;;;;;;;7.20;3.72;;;;;;;;;;5030000;28;20034;-80
2021/01/15 00:48:50;;;;;;;7.20;3.92;;;;;;;;;;5031157;28;20048;-79
2021/01/15 00:51:16;;;;;;;6.55;3.60;;;;;;;;;;5029843;28;20025;-80
2021/01/15 00:53:42;;;;;;;6.70;3.38;;;;;;;;;;5043620;28;20063;-80
2021/01/15 00:56:08;;;;;;;6.97;3.70;;;;;;;;;;5049947;28;20029;-80
2021/01/15 00:58:34;;;;;;;8.18;4.00;;;;;;;;;;5049100;28;20021;-80
2021/01/15 01:01:00;;;;;;;7.40;3.65;;;;;;;;;;5049712;28;20040;-81
2021/01/15 01:03:26;;;;;;;7.55;4.00;;;;;;;;;;5048240;28;20028;-80
2021/01/15 01:05:52;;;;;;;7.35;4.03;;;;;;;;;;5029835;28;20113;-80
2021/01/15 01:08:18;;;;;;;7.30;3.75;;;;;;;;;;5030111;28;20029;-81
2021/01/15 01:10:44;;;;;;;7.53;4.30;;;;;;;;;;5031017;28;20021;-81
2021/01/15 01:13:10;;;;;;;7.72;4.25;;;;;;;;;;5029840;28;20024;-80
2021/01/15 01:15:36;;;;;;;7.28;4.32;;;;;;;;;;5031672;28;20018;-81
2021/01/15 01:18:02;;;;;;;8.70;4.30;;;;;;;;;;5031195;28;20022;-79
2021/01/15 01:20:28;;;;;;;8.02;4.22;;;;;;;;;;5031257;28;20101;-81
2021/01/15 01:22:54;;;;;;;6.88;4.30;;;;;;;;;;5034974;28;20039;-81
2021/01/15 01:25:20;;;;;;;9.32;4.80;;;;;;;;;;5035005;28;20104;-81
2021/01/15 01:27:46;;;;;;;8.73;5.13;;;;;;;;;;5034659;28;20067;-81
2021/01/15 01:30:16;;;;;;;9.50;4.43;;;;;;;;;;5034740;28;20018;-80
2021/01/15 01:32:42;;;;;;;8.70;5.45;;;;;;;;;;5035189;28;20029;-79
2021/01/15 01:35:09;;;;;;;7.47;4.68;;;;;;;;;;5033495;28;20052;-81
2021/01/15 01:37:35;;;;;;;8.25;4.50;;;;;;;;;;5033258;28;20029;-80
2021/01/15 01:40:01;;;;;;;7.97;4.72;;;;;;;;;;5033115;28;20099;-80
2021/01/15 01:42:27;;;;;;;8.63;5.07;;;;;;;;;;5034545;28;20065;-81
2021/01/15 01:44:53;;;;;;;8.20;5.18;;;;;;;;;;5034633;28;20028;-81
2021/01/15 01:47:19;;;;;;;8.80;5.35;;;;;;;;;;5033256;28;20084;-80
2021/01/15 01:49:45;;;;;;;8.70;4.82;;;;;;;;;;5042319;28;20459;-80
2021/01/15 01:52:12;;;;;;;9.48;5.25;;;;;;;;;;5053869;28;20025;-80
2021/01/15 01:54:38;;;;;;;7.55;5.22;;;;;;;;;;5032271;28;20021;-80
2021/01/15 01:57:05;;;;;;;9.15;5.43;;;;;;;;;;5032549;28;20029;-81
2021/01/15 01:59:31;;;;;;;7.95;4.82;;;;;;;;;;5032203;28;20029;-81
2021/01/15 02:01:58;;;;;;;9.80;5.80;;;;;;;;;;5033351;28;20099;-81
2021/01/15 02:04:24;;;;;;;10.07;5.47;;;;;;;;;;5041406;28;20021;-80
2021/01/15 02:06:50;;;;;;;9.18;5.38;;;;;;;;;;5043092;28;20044;-81
2021/01/15 02:09:19;;;;;;;9.90;5.90;;;;;;;;;;5033299;28;20060;-80
2021/01/15 02:12:04;;;;;;;9.95;5.53;;;;;;;;;;5033107;28;20032;-81
2021/01/15 02:14:48;;;;;;;8.00;5.40;;;;;;;;;;5033085;28;20036;-80
2021/01/15 02:17:17;;;;;;;8.90;5.53;;;;;;;;;;5033195;28;20022;-82
2021/01/15 02:19:43;;;;;;;7.53;5.15;;;;;;;;;;5033263;28;20112;-81
2021/01/15 02:22:20;;;;;;;8.25;4.85;;;;;;;;;;5033050;28;20096;-78
2021/01/15 02:24:59;;;;;;;9.98;5.55;;;;;;;;;;5032886;28;20078;-80
2021/01/15 02:27:43;;;;;;;8.27;5.32;;;;;;;;;;5033556;28;20033;-80
2021/01/15 02:30:28;;;;;;;9.18;5.30;;;;;;;;;;5033526;28;20017;-82
2021/01/15 02:32:59;;;;;;;8.07;4.72;;;;;;;;;;5031869;28;20152;-82
2021/01/15 02:35:31;;;;;;;8.90;5.32;;;;;;;;;;5032240;28;20023;-80
2021/01/15 02:38:16;;;;;;;9.52;5.00;;;;;;;;;;5033621;28;20048;-81
2021/01/15 02:40:48;;;;;;;9.38;5.82;;;;;;;;;;5033480;28;20049;-80
2021/01/15 02:43:14;;;;;;;11.23;6.00;;;;;;;;;;5033327;28;20075;-81
2021/01/15 02:45:41;;;;;;;8.77;5.60;;;;;;;;;;5033081;28;20763;-80
2021/01/15 02:48:10;;;;;;;8.60;5.20;;;;;;;;;;5033242;28;20026;-81
2021/01/15 02:50:36;;;;;;;8.88;5.45;;;;;;;;;;5033190;28;20389;-79
2021/01/15 02:53:02;;;;;;;8.85;5.93;;;;;;;;;;5046669;28;20037;-80
2021/01/15 02:55:28;;;;;;;9.55;5.28;;;;;;;;;;5053028;28;20079;-81
2021/01/15 02:57:54;;;;;;;8.90;5.38;;;;;;;;;;5052077;28;20107;-80
2021/01/15 03:00:22;;;;;;;8.57;5.78;;;;;;;;;;5051794;28;20535;-80
2021/01/15 03:03:06;;;;;;;8.65;5.30;;;;;;;;;;5051623;28;20032;-81
2021/01/15 03:05:34;;;;;;;8.10;4.88;;;;;;;;;;5052696;28;20029;-80
2021/01/15 03:08:01;;;;;;;9.07;5.15;;;;;;;;;;5051555;28;20064;-81
2021/01/15 03:10:27;;;;;;;7.82;5.13;;;;;;;;;;5051258;28;20024;-81
2021/01/15 03:12:54;;;;;;;9.27;5.60;;;;;;;;;;5052551;28;20104;-80
2021/01/15 03:15:21;;;;;;;7.75;4.72;;;;;;;;;;5037698;28;20108;-80
2021/01/15 03:17:48;;;;;;;9.35;5.75;;;;;;;;;;5032832;28;20028;-80
2021/01/15 03:20:14;;;;;;;9.60;5.38;;;;;;;;;;5032649;28;20040;-81
2021/01/15 03:22:47;;;;;;;8.68;5.15;;;;;;;;;;5032488;28;20075;-81
2021/01/15 03:25:14;;;;;;;8.40;4.93;;;;;;;;;;5032570;28;20057;-81
2021/01/15 03:27:46;;;;;;;8.65;5.35;;;;;;;;;;5031120;28;20057;-79
2021/01/15 03:30:14;;;;;;;8.02;4.75;;;;;;;;;;5031201;28;20026;-79
2021/01/15 03:32:41;;;;;;;8.95;5.55;;;;;;;;;;5033179;28;20021;-82
2021/01/15 03:35:08;;;;;;;7.25;4.88;;;;;;;;;;5032488;28;20021;-81
2021/01/15 03:37:35;;;;;;;8.07;4.68;;;;;;;;;;5031130;28;20025;-81
2021/01/15 03:40:01;;;;;;;7.20;4.82;;;;;;;;;;5032424;28;20033;-80
2021/01/15 03:42:27;;;;;;;9.23;4.93;;;;;;;;;;5031054;28;20188;-80
2021/01/15 03:44:53;;;;;;;7.20;4.65;;;;;;;;;;5031622;28;20021;-80
2021/01/15 03:47:19;;;;;;;7.25;4.47;;;;;;;;;;5030615;28;20030;-81
2021/01/15 03:49:45;;;;;;;8.30;5.40;;;;;;;;;;5031368;28;20018;-80
2021/01/15 03:52:11;;;;;;;8.63;5.15;;;;;;;;;;5044834;28;20056;-81
2021/01/15 03:54:38;;;;;;;7.80;4.72;;;;;;;;;;5050740;28;20047;-81
2021/01/15 03:57:04;;;;;;;8.68;5.10;;;;;;;;;;5051888;28;20032;-80
2021/01/15 03:59:31;;;;;;;8.43;4.80;;;;;;;;;;5050508;28;20032;-81
2021/01/15 04:01:57;;;;;;;8.85;4.70;;;;;;;;;;5051967;28;20039;-81
2021/01/15 04:04:23;;;;;;;8.32;4.97;;;;;;;;;;5051848;28;20031;-80
2021/01/15 04:06:49;;;;;;;8.27;5.07;;;;;;;;;;5033853;28;20033;-81
2021/01/15 04:09:15;;;;;;;7.90;4.85;;;;;;;;;;5030646;28;20167;-80
2021/01/15 04:11:41;;;;;;;9.07;5.07;;;;;;;;;;5030466;28;20034;-79
2021/01/15 04:14:07;;;;;;;7.65;5.22;;;;;;;;;;5031782;28;20056;-80
2021/01/15 04:16:33;;;;;;;7.30;4.63;;;;;;;;;;5030537;28;20032;-80
2021/01/15 04:18:59;;;;;;;7.72;4.57;;;;;;;;;;5031672;28;20741;-80
2021/01/15 04:21:25;;;;;;;8.10;4.63;;;;;;;;;;5031553;28;20022;-81
2021/01/15 04:23:51;;;;;;;8.55;5.07;;;;;;;;;;5049706;28;20092;-79
2021/01/15 04:26:18;;;;;;;8.80;5.18;;;;;;;;;;5050293;28;20029;-80
2021/01/15 04:28:44;;;;;;;8.18;4.95;;;;;;;;;;5051549;28;20029;-80
2021/01/15 04:31:10;;;;;;;7.88;4.75;;;;;;;;;;5050056;28;20108;-80
2021/01/15 04:33:36;;;;;;;10.30;5.43;;;;;;;;;;5051428;28;20048;-81
2021/01/15 04:36:02;;;;;;;7.30;4.70;;;;;;;;;;5051605;28;20083;-81
2021/01/15 04:38:28;;;;;;;8.25;4.82;;;;;;;;;;5050054;28;20112;-80
2021/01/15 04:40:58;;;;;;;7.60;4.90;;;;;;;;;;5048917;28;20080;-81
2021/01/15 04:43:27;;;;;;;7.82;4.60;;;;;;;;;;5051085;28;20108;-81
2021/01/15 04:45:54;;;;;;;6.95;4.35;;;;;;;;;;5051256;28;20025;-80
2021/01/15 04:48:21;;;;;;;7.72;4.90;;;;;;;;;;5051199;28;20071;-80
2021/01/15 04:50:49;;;;;;;6.10;4.20;;;;;;;;;;5049625;28;20032;-81
2021/01/15 04:53:17;;;;;;;9.13;4.68;;;;;;;;;;5029765;28;20021;-80
2021/01/15 04:55:44;;;;;;;6.82;4.00;;;;;;;;;;5034097;28;20029;-79
2021/01/15 04:58:11;;;;;;;6.78;4.05;;;;;;;;;;5035426;28;20018;-80
2021/01/15 05:00:37;;;;;;;7.35;4.20;;;;;;;;;;5035227;28;20637;-80
2021/01/15 05:03:03;;;;;;;7.25;4.07;;;;;;;;;;5035270;28;20030;-79
2021/01/15 05:05:29;;;;;;;7.70;4.50;;;;;;;;;;5053474;28;20483;-81
2021/01/15 05:08:12;;;;;;;9.48;5.00;;;;;;;;;;5053771;28;20438;-81
2021/01/15 05:10:40;;;;;;;10.15;4.25;;;;;;;;;;5055018;28;20028;-81
2021/01/15 05:13:08;;;;;;;8.65;4.95;;;;;;;;;;5050832;28;20033;-80
2021/01/15 05:15:34;;;;;;;8.48;4.90;;;;;;;;;;5037360;28;20116;-80
2021/01/15 05:18:02;;;;;;;6.88;4.30;;;;;;;;;;5054658;28;20499;-76
2021/01/15 05:20:29;;;;;;;9.80;4.25;;;;;;;;;;5054716;28;20109;-76
2021/01/15 05:22:58;;;;;;;7.53;4.60;;;;;;;;;;5054666;28;20025;-75
2021/01/15 05:25:24;;;;;;;8.07;4.32;;;;;;;;;;5054271;28;20661;-74
2021/01/15 05:27:50;;;;;;;7.72;4.70;;;;;;;;;;5053892;28;20029;-75
2021/01/15 05:30:17;;;;;;;8.98;4.82;;;;;;;;;;5047832;28;20489;-75
2021/01/15 05:32:43;;;;;;;10.20;4.38;;;;;;;;;;5036287;28;20018;-76
2021/01/15 05:35:10;;;;;;;6.47;4.45;;;;;;;;;;5054451;28;20033;-75
2021/01/15 05:37:36;;;;;;;7.13;4.20;;;;;;;;;;5054375;28;20025;-76
2021/01/15 05:40:03;;;;;;;11.25;4.35;;;;;;;;;;5053709;28;20036;-76
2021/01/15 05:42:29;;;;;;;9.05;4.25;;;;;;;;;;5057457;28;20041;-76
2021/01/15 05:45:12;;;;;;;7.93;4.60;;;;;;;;;;5054412;28;20098;-76
2021/01/15 05:47:42;;;;;;;9.75;4.00;;;;;;;;;;5045847;28;20035;-76
2021/01/15 05:50:09;;;;;;;8.23;4.40;;;;;;;;;;5033157;28;20061;-75
2021/01/15 05:52:35;;;;;;;8.77;4.95;;;;;;;;;;5050263;28;20025;-75
2021/01/15 05:55:10;;;;;;;9.38;4.40;;;;;;;;;;5053770;28;20044;-76
2021/01/15 05:57:36;;;;;;;9.40;4.68;;;;;;;;;;5053946;28;20029;-75
2021/01/15 06:00:03;;;;;;;14.38;4.57;;;;;;;;;;5047328;28;20416;-76
2021/01/15 06:02:29;;;;;;;11.32;4.90;;;;;;;;;;5050617;28;20025;-78
2021/01/15 06:04:55;;;;;;;11.18;4.35;;;;;;;;;;5042867;28;20028;-74
2021/01/15 06:07:21;;;;;;;7.63;4.30;;;;;;;;;;5047100;28;20072;-76
2021/01/15 06:09:48;;;;;;;9.98;3.90;;;;;;;;;;5032811;28;20037;-77
2021/01/15 06:12:16;;;;;;;12.02;4.32;;;;;;;;;;5032646;28;20029;-77
2021/01/15 06:14:58;;;;;;;12.52;5.38;;;;;;;;;;5032723;28;20124;-78
2021/01/15 06:17:27;;;;;;;8.30;4.95;;;;;;;;;;5033426;28;20029;-78
2021/01/15 06:19:54;;;;;;;13.93;5.53;;;;;;;;;;5032391;28;20048;-77
2021/01/15 06:22:31;;;;;;;12.05;5.35;;;;;;;;;;5033077;28;20025;-77
2021/01/15 06:25:18;;;;;;;10.85;5.10;;;;;;;;;;5032500;28;20033;-78
2021/01/15 06:27:44;;;;;;;13.98;5.03;;;;;;;;;;5021476;28;20511;-77
2021/01/15 06:30:18;;;;;;;10.07;5.18;;;;;;;;;;5033322;28;20021;-78
2021/01/15 06:32:44;;;;;;;13.18;5.25;;;;;;;;;;5032189;28;20030;-78
2021/01/15 06:35:23;;;;;;;10.68;5.07;;;;;;;;;;5032144;28;20016;-78
2021/01/15 06:37:57;;;;;;;8.13;4.65;;;;;;;;;;5032780;28;20485;-78
2021/01/15 06:40:29;;;;;;;10.68;4.65;;;;;;;;;;5031803;28;20106;-77
2021/01/15 06:42:58;;;;;;;9.70;4.65;;;;;;;;;;5033323;28;20024;-78
2021/01/15 06:45:24;;;;;;;9.48;4.65;;;;;;;;;;5032880;28;20148;-78
2021/01/15 06:47:54;;;;;;;10.88;5.38;;;;;;;;;;5031897;28;20038;-77
2021/01/15 06:50:20;;;;;;;9.35;4.93;;;;;;;;;;5031982;28;20113;-78
2021/01/15 06:52:47;;;;;;;7.78;4.93;;;;;;;;;;5050326;28;20036;-78
2021/01/15 06:55:15;;;;;;;7.65;4.70;;;;;;;;;;5050885;28;20021;-78
2021/01/15 06:57:45;;;;;;;8.43;4.65;;;;;;;;;;5051551;28;20127;-78
2021/01/15 07:00:13;;;;;;;11.35;5.10;;;;;;;;;;5052977;28;20025;-78
2021/01/15 07:02:39;;;;;;;7.80;5.13;;;;;;;;;;5052954;28;20434;-78
2021/01/15 07:05:05;;;;;;;9.43;5.05;;;;;;;;;;5051405;28;20083;-78
2021/01/15 07:07:31;;;;;;;10.35;5.20;;;;;;;;;;5051000;28;20037;-78
2021/01/15 07:10:01;;;;;;;66.35;8.32;;;;;;;;;;5051576;28;20543;-82
2021/01/15 07:12:27;;;;;;;59.55;8.52;;;;;;;;;;5052436;28;20033;-88
2021/01/15 07:14:56;;;;;;;34.20;8.50;;;;;;;;;;5052951;28;20461;-79
2021/01/15 07:17:35;;;;;;;32.83;7.13;;;;;;;;;;5051204;28;20025;-78
2021/01/15 07:20:06;;;;;;;25.10;6.65;;;;;;;;;;5048033;28;20063;-76
2021/01/15 07:22:36;;;;;;;32.92;6.97;;;;;;;;;;5052508;28;20511;-77
2021/01/15 07:25:04;;;;;;;29.02;7.85;;;;;;;;;;5052986;28;20061;-81
2021/01/15 07:27:30;;;;;;;25.40;6.63;;;;;;;;;;5051716;28;20039;-77
2021/01/15 07:29:56;;;;;;;22.35;6.45;;;;;;;;;;5039938;28;20022;-77
2021/01/15 07:32:23;;;;;;;27.05;6.63;;;;;;;;;;5029426;28;20214;-76
2021/01/15 07:34:59;;;;;;;17.77;6.78;;;;;;;;;;5029748;28;20480;-77
2021/01/15 07:37:29;;;;;;;19.67;6.43;;;;;;;;;;5030806;28;20107;-77
2021/01/15 07:40:09;;;;;;;19.65;5.53;;;;;;;;;;5030553;28;20476;-76
2021/01/15 07:42:58;;;;;;;19.50;6.70;;;;;;;;;;5029512;28;20384;-81
2021/01/15 07:45:27;;;;;;;20.65;5.88;;;;;;;;;;5030165;28;20095;-79
2021/01/15 07:47:54;;;;;;;18.65;6.13;;;;;;;;;;5031162;28;20610;-80
2021/01/15 07:50:30;;;;;;;17.05;5.65;;;;;;;;;;5030341;28;20128;-77
2021/01/15 07:53:05;;;;;;;13.05;5.55;;;;;;;;;;5049371;28;20029;-77
2021/01/15 07:55:47;;;;;;;14.82;5.63;;;;;;;;;;5051683;28;20016;-78
2021/01/15 07:58:17;;;;;;;15.63;5.60;;;;;;;;;;5051818;28;20082;-78
2021/01/15 08:00:44;;;;;;;13.80;5.68;;;;;;;;;;5050270;28;20044;-85
2021/01/15 08:03:11;;;;;;;11.43;5.80;;;;;;;;;;5051043;28;20029;-79
2021/01/15 08:05:37;;;;;;;12.90;5.32;;;;;;;;;;5051264;28;20021;-78
2021/01/15 08:08:07;;;;;;;12.20;5.95;;;;;;;;;;5051547;28;20033;-79
2021/01/15 08:10:44;;;;;;;9.35;5.05;;;;;;;;;;5051664;28;20097;-80
2021/01/15 08:13:15;;;;;;;14.23;5.65;;;;;;;;;;5052136;28;20040;-79
2021/01/15 08:15:41;;;;;;;11.07;6.28;;;;;;;;;;5051371;28;20071;-80
2021/01/15 08:18:07;;;;;;;13.30;5.80;;;;;;;;;;5051294;28;20063;-79
2021/01/15 08:20:33;;;;;;;9.48;5.55;;;;;;;;;;5043818;28;20034;-79
2021/01/15 08:22:59;;;;;;;10.10;4.88;;;;;;;;;;5031665;28;20464;-80
2021/01/15 08:25:29;;;;;;;11.82;5.38;;;;;;;;;;5031261;28;20036;-81
2021/01/15 08:27:56;;;;;;;12.73;5.47;;;;;;;;;;5031209;28;20061;-75
2021/01/15 08:30:22;;;;;;;10.63;5.30;;;;;;;;;;5029781;28;20043;-76
2021/01/15 08:32:48;;;;;;;9.70;5.18;;;;;;;;;;5030062;28;20033;-78
2021/01/15 08:35:22;;;;;;;12.63;6.28;;;;;;;;;;5030747;28;20025;-77
2021/01/15 08:37:54;;;;;;;11.18;5.28;;;;;;;;;;5030384;28;20017;-77
2021/01/15 08:40:30;;;;;;;11.38;5.53;;;;;;;;;;5029930;28;20121;-73
2021/01/15 08:42:58;;;;;;;10.05;5.65;;;;;;;;;;5029977;28;20028;-76
2021/01/15 08:45:28;;;;;;;9.55;5.55;;;;;;;;;;5030947;28;20469;-76
2021/01/15 08:47:58;;;;;;;8.85;5.47;;;;;;;;;;5031218;28;20048;-75
2021/01/15 08:50:25;;;;;;;8.93;5.28;;;;;;;;;;5031001;28;20040;-76
2021/01/15 08:52:51;;;;;;;12.90;5.13;;;;;;;;;;5048867;28;20029;-77
2021/01/15 08:55:22;;;;;;;12.48;4.82;;;;;;;;;;5048187;28;20029;-79
2021/01/15 08:57:48;;;;;;;10.65;5.70;;;;;;;;;;5050991;28;20032;-77
2021/01/15 09:00:15;;;;;;;11.00;5.40;;;;;;;;;;5050809;28;20027;-82
2021/01/15 09:02:42;;;;;;;12.27;5.43;;;;;;;;;;5049853;28;20029;-79
2021/01/15 09:05:10;;;;;;;11.40;5.60;;;;;;;;;;5049575;28;20013;-75
2021/01/15 09:07:49;;;;;;;8.30;5.22;;;;;;;;;;5049596;28;20037;-81
2021/01/15 09:10:16;;;;;;;8.95;5.80;;;;;;;;;;5050535;28;20027;-78
2021/01/15 09:12:52;;;;;;;10.55;5.28;;;;;;;;;;5048766;28;20499;-75
2021/01/15 09:15:20;;;;;;;10.63;4.82;;;;;;;;;;5050721;28;20047;-73
2021/01/15 09:17:46;;;;;;;11.05;5.60;;;;;;;;;;5050837;28;20029;-72
2021/01/15 09:20:13;;;;;;;9.82;5.20;;;;;;;;;;5050397;28;20047;-72
2021/01/15 09:22:39;;;;;;;14.95;6.18;;;;;;;;;;5050792;28;20522;-72
2021/01/15 09:25:05;;;;;;;11.68;5.78;;;;;;;;;;5050493;28;20104;-76
2021/01/15 09:27:31;;;;;;;10.13;5.68;;;;;;;;;;5050723;28;20043;-76
2021/01/15 09:29:57;;;;;;;13.02;5.75;;;;;;;;;;5048503;28;20048;-73
2021/01/15 09:32:23;;;;;;;10.88;6.05;;;;;;;;;;5050391;28;20486;-73
2021/01/15 09:34:49;;;;;;;11.13;5.93;;;;;;;;;;5049257;28;20495;-74
2021/01/15 09:37:15;;;;;;;9.32;5.53;;;;;;;;;;5050458;28;20025;-72
2021/01/15 09:39:41;;;;;;;10.35;6.03;;;;;;;;;;5049483;28;20385;-79
2021/01/15 09:42:10;;;;;;;10.65;5.70;;;;;;;;;;5051727;28;20575;-74
2021/01/15 09:44:36;;;;;;;8.65;5.30;;;;;;;;;;5052807;28;20017;-74
2021/01/15 09:47:03;;;;;;;8.68;5.60;;;;;;;;;;5052238;28;20032;-77
2021/01/15 09:49:31;;;;;;;9.40;4.70;;;;;;;;;;5053215;28;20346;-76
2021/01/15 09:51:57;;;;;;;11.75;5.25;;;;;;;;;;5043184;28;20022;-77
2021/01/15 09:54:23;;;;;;;8.90;5.10;;;;;;;;;;5032824;28;20060;-74
2021/01/15 09:56:49;;;;;;;8.27;5.28;;;;;;;;;;5033972;28;20036;-78
2021/01/15 09:59:16;;;;;;;11.15;5.05;;;;;;;;;;5032686;28;20018;-76
2021/01/15 10:01:43;;;;;;;8.85;5.07;;;;;;;;;;5032888;28;20116;-78
2021/01/15 10:04:09;;;;;;;9.85;5.50;;;;;;;;;;5040923;28;20025;-78
2021/01/15 10:06:39;;;;;;;8.07;4.32;;;;;;;;;;5053794;28;20037;-78
2021/01/15 10:09:06;;;;;;;9.77;5.28;;;;;;;;;;5052515;28;20025;-74
2021/01/15 10:11:33;;;;;;;9.70;5.38;;;;;;;;;;5053827;28;20430;-78
2021/01/15 10:14:04;;;;;;;10.45;5.30;;;;;;;;;;5052105;28;20032;-79
2021/01/15 10:16:30;;;;;;;7.80;4.47;;;;;;;;;;5052491;28;20452;-81
2021/01/15 10:18:56;;;;;;;9.43;4.65;;;;;;;;;;5049818;28;20028;-77
2021/01/15 10:21:28;;;;;;;8.25;4.60;;;;;;;;;;5032143;28;20068;-76
2021/01/15 10:23:55;;;;;;;10.38;5.15;;;;;;;;;;5033454;28;20056;-76
2021/01/15 10:26:23;;;;;;;8.23;4.82;;;;;;;;;;5033471;28;20025;-81
2021/01/15 10:28:49;;;;;;;7.05;4.55;;;;;;;;;;5032151;28;20022;-75
2021/01/15 10:31:15;;;;;;;11.82;5.00;;;;;;;;;;5033215;28;20369;-81
2021/01/15 10:33:41;;;;;;;7.95;4.57;;;;;;;;;;5033607;28;20021;-78
2021/01/15 10:36:08;;;;;;;9.52;5.20;;;;;;;;;;5032451;28;20056;-73
2021/01/15 10:38:34;;;;;;;9.88;4.45;;;;;;;;;;5033292;28;20021;-80
2021/01/15 10:41:01;;;;;;;7.55;4.30;;;;;;;;;;5032267;28;20088;-82
2021/01/15 10:43:27;;;;;;;9.57;4.72;;;;;;;;;;5032307;28;20032;-83
2021/01/15 10:45:54;;;;;;;9.35;4.82;;;;;;;;;;5033922;28;20021;-80
2021/01/15 10:48:20;;;;;;;8.60;5.28;;;;;;;;;;5031967;28;20025;-79
2021/01/15 10:50:46;;;;;;;8.45;4.70;;;;;;;;;;5033721;28;20522;-83
2021/01/15 10:53:12;;;;;;;8.38;4.55;;;;;;;;;;5050595;28;20029;-85
2021/01/15 10:55:38;;;;;;;7.40;4.70;;;;;;;;;;5051933;28;20025;-78
2021/01/15 10:58:05;;;;;;;7.65;4.50;;;;;;;;;;5051672;28;20024;-80
2021/01/15 11:00:32;;;;;;;8.80;5.30;;;;;;;;;;5051546;28;20081;-79
2021/01/15 11:02:58;;;;;;;8.35;4.78;;;;;;;;;;5051868;28;20021;-75
2021/01/15 11:05:24;;;;;;;8.68;5.40;;;;;;;;;;5051387;28;20029;-81
2021/01/15 11:07:50;;;;;;;10.40;5.35;;;;;;;;;;5052966;28;20082;-82
2021/01/15 11:10:16;;;;;;;9.45;5.40;;;;;;;;;;5048092;28;20502;-79
2021/01/15 11:12:42;;;;;;;11.73;5.10;;;;;;;;;;5033204;28;20104;-88
2021/01/15 11:15:09;;;;;;;8.73;5.07;;;;;;;;;;5033746;28;20017;-84
2021/01/15 11:17:39;;;;;;;7.65;4.43;;;;;;;;;;5031649;28;20025;-75
2021/01/15 11:20:06;;;;;;;9.52;4.95;;;;;;;;;;5032380;28;20515;-77
2021/01/15 11:22:32;;;;;;;9.98;5.22;;;;;;;;;;5031368;28;20495;-78
2021/01/15 11:24:58;;;;;;;7.30;4.63;;;;;;;;;;5033278;28;20021;-74
2021/01/15 11:27:24;;;;;;;8.10;4.78;;;;;;;;;;5031626;28;20522;-74
2021/01/15 11:29:50;;;;;;;9.98;4.88;;;;;;;;;;5031039;28;20017;-75
2021/01/15 11:32:18;;;;;;;7.70;4.45;;;;;;;;;;5031104;28;20079;-76
2021/01/15 11:34:44;;;;;;;8.80;5.18;;;;;;;;;;5032350;28;20021;-77
2021/01/15 11:37:10;;;;;;;10.27;5.15;;;;;;;;;;5031069;28;20039;-79
2021/01/15 11:39:36;;;;;;;9.07;5.18;;;;;;;;;;5032382;28;20025;-82
2021/01/15 11:42:03;;;;;;;11.43;4.97;;;;;;;;;;5038296;28;20048;-76
2021/01/15 11:44:29;;;;;;;8.38;4.53;;;;;;;;;;5043395;28;20075;-78
2021/01/15 11:46:55;;;;;;;9.63;5.22;;;;;;;;;;5047245;28;20094;-79
2021/01/15 11:49:21;;;;;;;7.57;4.40;;;;;;;;;;5043639;28;20021;-81
2021/01/15 11:51:47;;;;;;;7.43;4.50;;;;;;;;;;5052320;28;20078;-78
2021/01/15 11:54:13;;;;;;;7.82;4.70;;;;;;;;;;5049777;28;20057;-76
2021/01/15 11:56:40;;;;;;;8.27;5.07;;;;;;;;;;5039447;28;20013;-78
2021/01/15 11:59:06;;;;;;;8.13;4.93;;;;;;;;;;5049218;28;20036;-77
2021/01/15 12:01:32;;;;;;;6.95;4.50;;;;;;;;;;5041274;28;20025;-81
2021/01/15 12:03:58;;;;;;;7.18;4.50;;;;;;;;;;5051652;28;20384;-84
2021/01/15 12:06:24;;;;;;;7.53;4.55;;;;;;;;;;5050597;28;20021;-78
2021/01/15 12:08:50;;;;;;;7.53;4.30;;;;;;;;;;5039027;28;20037;-79
2021/01/15 12:11:16;;;;;;;6.78;3.90;;;;;;;;;;5047930;28;20021;-80
2021/01/15 12:13:42;;;;;;;8.57;4.30;;;;;;;;;;5048440;28;20061;-81
2021/01/15 12:16:11;;;;;;;6.38;4.20;;;;;;;;;;5035267;28;20029;-82
2021/01/15 12:18:37;;;;;;;7.00;4.28;;;;;;;;;;5047897;28;20428;-75
2021/01/15 12:21:03;;;;;;;7.32;4.40;;;;;;;;;;5039703;28;20021;-77
2021/01/15 12:23:29;;;;;;;7.30;3.70;;;;;;;;;;5044056;28;20068;-79
2021/01/15 12:25:55;;;;;;;7.28;4.25;;;;;;;;;;5044371;28;20090;-81
2021/01/15 12:28:22;;;;;;;6.75;3.67;;;;;;;;;;5040853;28;20032;-76
2021/01/15 12:30:51;;;;;;;6.13;3.67;;;;;;;;;;5035791;28;20052;-75
2021/01/15 12:33:18;;;;;;;6.55;3.85;;;;;;;;;;5036567;28;20030;-79
2021/01/15 12:35:44;;;;;;;7.47;4.32;;;;;;;;;;5038737;28;20032;-77
2021/01/15 12:38:12;;;;;;;6.97;3.72;;;;;;;;;;5035509;28;20025;-81
2021/01/15 12:40:38;;;;;;;5.60;3.50;;;;;;;;;;5045287;28;20095;-82
2021/01/15 12:43:04;;;;;;;6.00;3.60;;;;;;;;;;5046025;28;20028;-77
2021/01/15 12:45:34;;;;;;;5.65;3.85;;;;;;;;;;5034305;28;20104;-79
2021/01/15 12:48:00;;;;;;;6.13;3.83;;;;;;;;;;5034591;28;20067;-78
2021/01/15 12:50:26;;;;;;;7.20;3.92;;;;;;;;;;5036075;28;20025;-77
2021/01/15 12:52:52;;;;;;;10.55;3.80;;;;;;;;;;5044793;28;20026;-76
2021/01/15 12:55:25;;;;;;;10.07;3.95;;;;;;;;;;5037677;28;20070;-73
2021/01/15 12:57:51;;;;;;;5.85;3.65;;;;;;;;;;5033257;28;20037;-76
2021/01/15 13:00:18;;;;;;;7.63;3.90;;;;;;;;;;5042365;28;20048;-78
2021/01/15 13:02:44;;;;;;;6.03;3.45;;;;;;;;;;5034588;28;20025;-71
2021/01/15 13:05:10;;;;;;;8.05;3.92;;;;;;;;;;5036507;28;20028;-77
2021/01/15 13:07:37;;;;;;;12.25;4.00;;;;;;;;;;5037333;28;20056;-76
2021/01/15 13:10:05;;;;;;;7.95;4.13;;;;;;;;;;5030962;28;20026;-80
2021/01/15 13:12:31;;;;;;;6.13;3.53;;;;;;;;;;5030835;28;20021;-79
2021/01/15 13:14:57;;;;;;;9.85;3.85;;;;;;;;;;5032732;28;20119;-82
2021/01/15 13:17:23;;;;;;;8.73;4.13;;;;;;;;;;5044930;28;20029;-75
2021/01/15 13:19:49;;;;;;;14.07;3.85;;;;;;;;;;5043286;28;20021;-87
2021/01/15 13:22:20;;;;;;;9.13;4.15;;;;;;;;;;5043294;28;20099;-84
2021/01/15 13:24:46;;;;;;;8.23;3.28;;;;;;;;;;5045935;28;20024;-82
2021/01/15 13:27:12;;;;;;;8.95;3.97;;;;;;;;;;5054149;28;20508;-82
2021/01/15 13:29:39;;;;;;;13.18;4.25;;;;;;;;;;5045575;28;20028;-79
2021/01/15 13:32:05;;;;;;;15.23;4.13;;;;;;;;;;5034506;28;20483;-80
2021/01/15 13:34:31;;;;;;;15.18;4.38;;;;;;;;;;5046101;28;20021;-77
2021/01/15 13:36:58;;;;;;;8.85;4.53;;;;;;;;;;5054534;28;20503;-76
2021/01/15 13:39:24;;;;;;;6.72;4.30;;;;;;;;;;5053292;28;20029;-74
2021/01/15 13:41:50;;;;;;;6.97;3.78;;;;;;;;;;5054188;28;20076;-75
2021/01/15 13:44:16;;;;;;;8.15;4.28;;;;;;;;;;5040757;28;20017;-74
2021/01/15 13:46:42;;;;;;;8.73;4.35;;;;;;;;;;5034050;28;20079;-75
2021/01/15 13:49:08;;;;;;;9.88;4.45;;;;;;;;;;5034139;28;20477;-75
2021/01/15 13:51:34;;;;;;;11.05;4.45;;;;;;;;;;5049344;28;20052;-83
2021/01/15 13:54:01;;;;;;;13.13;4.45;;;;;;;;;;5072940;28;20036;-74
2021/01/15 13:56:27;;;;;;;10.80;4.65;;;;;;;;;;5074099;28;20388;-75
2021/01/15 13:58:53;;;;;;;7.47;4.40;;;;;;;;;;5074034;28;20057;-74
2021/01/15 14:01:20;;;;;;;10.05;4.75;;;;;;;;;;5046360;28;20418;-80
2021/01/15 14:03:46;;;;;;;9.20;4.65;;;;;;;;;;5033224;28;20025;-77
2021/01/15 14:06:12;;;;;;;12.10;4.95;;;;;;;;;;5032625;28;20475;-77
2021/01/15 14:08:38;;;;;;;10.45;4.90;;;;;;;;;;5033904;28;20493;-77
2021/01/15 14:11:04;;;;;;;11.02;4.57;;;;;;;;;;5034063;28;20022;-78
2021/01/15 14:13:30;;;;;;;10.10;4.63;;;;;;;;;;5032972;28;20121;-75
2021/01/15 14:15:57;;;;;;;10.57;5.25;;;;;;;;;;5033981;28;20389;-75
2021/01/15 14:18:23;;;;;;;10.77;5.15;;;;;;;;;;5034288;28;20013;-74
2021/01/15 14:20:49;;;;;;;9.02;4.93;;;;;;;;;;5033715;28;20021;-75
2021/01/15 14:23:15;;;;;;;8.50;4.80;;;;;;;;;;5043276;28;20052;-75
2021/01/15 14:25:41;;;;;;;8.15;4.68;;;;;;;;;;5037442;28;20025;-74
2021/01/15 14:28:07;;;;;;;12.10;5.07;;;;;;;;;;5034009;28;20120;-79
2021/01/15 14:30:33;;;;;;;8.77;4.88;;;;;;;;;;5053395;28;20024;-74
2021/01/15 14:32:59;;;;;;;8.18;4.60;;;;;;;;;;5052080;28;20541;-74
2021/01/15 14:35:26;;;;;;;11.45;5.30;;;;;;;;;;5052530;28;20029;-76
2021/01/15 14:37:53;;;;;;;10.25;5.05;;;;;;;;;;5053488;28;20024;-73
2021/01/15 14:40:20;;;;;;;11.88;5.00;;;;;;;;;;5048443;28;20091;-77
2021/01/15 14:42:46;;;;;;;16.75;5.60;;;;;;;;;;5033359;28;20025;-77